TimeEDT,TemperatureF,Dew PointF,Humidity,Sea Level PressureIn,VisibilityMPH,Wind Direction,Wind SpeedMPH,Gust SpeedMPH,PrecipitationIn,Events,Conditions,WindDirDegrees,DateUTC
12:31 AM,71.6,64.4,78,30.10,10.0,NNW,4.6,-,N/A,,Overcast,330,2013-07-13 04:31:00
12:53 AM,71.1,64.9,81,30.08,10.0,North,5.8,-,N/A,,Overcast,360,2013-07-13 04:53:00
1:00 AM,71.6,64.4,78,30.08,10.0,NNE,9.2,-,N/A,,Overcast,20,2013-07-13 05:00:00
1:53 AM,70.0,64.9,84,30.07,10.0,NNW,3.5,-,N/A,,Overcast,330,2013-07-13 05:53:00
2:53 AM,70.0,64.9,84,30.08,10.0,North,3.5,-,N/A,,Overcast,350,2013-07-13 06:53:00
3:37 AM,69.8,66.2,88,30.08,5.0,NNW,5.8,-,0.00,Rain,Light Rain,340,2013-07-13 07:37:00
3:53 AM,68.0,66.0,93,30.08,8.0,NNW,5.8,-,0.00,,Overcast,330,2013-07-13 07:53:00
4:42 AM,68.0,66.2,94,30.10,4.0,WNW,4.6,-,0.01,Rain,Light Rain,300,2013-07-13 08:42:00
4:53 AM,68.0,66.0,93,30.09,3.0,NW,4.6,-,0.01,Rain,Light Rain,320,2013-07-13 08:53:00
5:08 AM,68.0,66.2,94,30.09,3.0,NW,5.8,-,0.00,Rain,Light Rain,320,2013-07-13 09:08:00
5:39 AM,68.0,66.2,94,30.09,10.0,North,3.5,-,0.00,,Overcast,350,2013-07-13 09:39:00
5:53 AM,68.0,66.0,93,30.09,10.0,NNW,4.6,-,0.00,,Overcast,330,2013-07-13 09:53:00
6:53 AM,69.1,66.0,90,30.12,7.0,NW,3.5,-,N/A,,Overcast,310,2013-07-13 10:53:00
7:53 AM,69.1,66.9,93,30.14,10.0,Calm,Calm,-,N/A,,Overcast,0,2013-07-13 11:53:00
8:53 AM,71.1,66.9,87,30.15,10.0,Calm,Calm,-,N/A,,Overcast,0,2013-07-13 12:53:00
9:38 AM,71.6,66.2,83,30.18,10.0,Calm,Calm,-,N/A,,Overcast,0,2013-07-13 13:38:00
9:53 AM,71.1,66.9,87,30.17,10.0,Calm,Calm,-,N/A,,Overcast,0,2013-07-13 13:53:00
10:53 AM,73.0,68.0,84,30.19,10.0,South,3.5,-,N/A,,Overcast,180,2013-07-13 14:53:00
11:00 AM,73.4,68.0,83,30.20,10.0,South,4.6,-,N/A,,Overcast,180,2013-07-13 15:00:00
11:30 AM,73.4,68.0,83,30.21,10.0,South,4.6,-,N/A,,Overcast,170,2013-07-13 15:30:00
11:53 AM,75.9,69.1,79,30.20,10.0,SW,4.6,-,N/A,,Overcast,230,2013-07-13 15:53:00
12:53 PM,78.1,66.9,68,30.19,10.0,WSW,3.5,-,N/A,,Overcast,250,2013-07-13 16:53:00
1:53 PM,79.0,66.0,64,30.19,10.0,Variable,3.5,-,N/A,,Partly Cloudy,0,2013-07-13 17:53:00
2:53 PM,81.0,66.9,62,30.19,10.0,SE,6.9,-,N/A,,Mostly Cloudy,130,2013-07-13 18:53:00
3:53 PM,81.0,66.0,60,30.19,10.0,Calm,Calm,-,N/A,,Scattered Clouds,0,2013-07-13 19:53:00
4:53 PM,81.0,66.9,62,30.19,10.0,SE,4.6,-,N/A,,Overcast,130,2013-07-13 20:53:00
5:53 PM,82.0,69.1,65,30.19,10.0,ESE,4.6,-,N/A,,Scattered Clouds,110,2013-07-13 21:53:00
6:53 PM,81.0,68.0,65,30.20,10.0,SE,3.5,-,N/A,,Overcast,130,2013-07-13 22:53:00
7:53 PM,79.0,70.0,74,30.22,10.0,Calm,Calm,-,N/A,,Overcast,0,2013-07-13 23:53:00
8:53 PM,78.1,69.1,74,30.22,10.0,Calm,Calm,-,N/A,,Mostly Cloudy,0,2013-07-14 00:53:00
9:53 PM,75.9,71.1,85,30.25,10.0,Calm,Calm,-,N/A,,Overcast,0,2013-07-14 01:53:00
10:53 PM,73.9,70.0,87,30.27,10.0,Calm,Calm,-,N/A,,Scattered Clouds,0,2013-07-14 02:53:00
11:53 PM,73.0,70.0,90,30.27,10.0,Calm,Calm,-,N/A,,Clear,0,2013-07-14 03:53:00